Home   Weather   Netherlands   Ede   Past weeks
Flag for Netherlands

Past Weather in Ede, Netherlands — Yesterday and Last 2 Weeks

Currently: 70 °F. Mild. (Weather station: Deelen, Netherlands). See more current weather

Past Weather in Ede — Graph

°F

Ede Temperature Yesterday

Maximum temperature yesterday: 84 °F (at 3:25 pm)
Minimum temperature yesterday: 55 °F (at 2:25 am)
Average temperature yesterday: 71 °F

High & Low Weather Summary for the Past Weeks

 TemperatureHumidityPressure
High84 °F (Jun 14, 4:25 pm)100% (Jun 3, 7:25 pm)30.36 "Hg (Jun 3, 7:25 pm)
Low45 °F (Jun 13, 4:55 am)26% (Jun 2, 6:25 pm)29.80 "Hg (Jun 17, 4:55 am)
Average66 °F69%30.13 "Hg
* Reported Jun 2 6:25 am — Jun 17 6:25 am, Ede. Weather by CustomWeather, © 2021

Note: Actual official high and low records may vary slightly from our data, if they occured in-between our weather recording intervals... More about our weather records

Ede Weather History for the Previous 24 Hours

Scroll right to see more
 ConditionsComfort  
Time TempWeatherWind HumidityBarometerVisibility
6:25 am
Thu, Jun 17
70 °FPassing clouds.3 mph73%29.80 "HgN/A
5:55 am70 °FScattered clouds.3 mph73%29.80 "HgN/A
5:25 am68 °FPartly sunny.5 mph78%29.80 "HgN/A
4:55 am64 °FMild.3 mph88%29.80 "HgN/A
4:25 am64 °FPassing clouds.2 mph88%29.83 "HgN/A
3:55 am64 °FMild.3 mph88%29.83 "HgN/A
3:25 am66 °FMild.3 mph83%29.83 "HgN/A
2:55 am68 °FMild.2 mph78%29.83 "HgN/A
2:25 am68 °FMild.3 mph78%29.83 "HgN/A
1:55 am66 °FMild.2 mph83%29.83 "HgN/A
1:25 am66 °FMild.No wind83%29.86 "HgN/A
12:55 am66 °FMild.2 mph83%29.86 "HgN/A
12:25 am64 °FMild.3 mph88%29.86 "HgN/A
11:55 pm
Wed, Jun 16
66 °FMild.2 mph88%29.86 "HgN/A
11:25 pm68 °FMild.1 mph83%29.86 "HgN/A
10:55 pm70 °FPassing clouds.3 mph78%29.86 "HgN/A
10:25 pm72 °FMild.2 mph73%29.86 "HgN/A
9:55 pm73 °FOvercast.3 mph74%29.86 "HgN/A
9:25 pm77 °FWarm.2 mph65%29.86 "HgN/A
8:55 pm81 °FOvercast.1 mph58%29.86 "HgN/A
8:25 pm84 °FOvercast.2 mph43%29.86 "HgN/A
7:55 pm84 °FPassing clouds.3 mph43%29.86 "HgN/A
7:25 pm84 °FPassing clouds.1 mph45%29.86 "HgN/A
6:55 pm84 °FPassing clouds.2 mph43%29.86 "HgN/A
6:25 pm84 °FWarm.2 mph43%29.86 "HgN/A
5:55 pm84 °FWarm.5 mph43%29.86 "HgN/A
5:25 pm84 °FPartly sunny.2 mph45%29.89 "HgN/A
4:55 pm84 °FPartly sunny.6 mph43%29.89 "HgN/A
4:25 pm84 °FPassing clouds.3 mph43%29.89 "HgN/A
3:55 pm82 °FHigh level clouds.5 mph45%29.89 "HgN/A
3:25 pm84 °FHigh level clouds.8 mph43%29.92 "HgN/A
2:55 pm82 °FPartly sunny.8 mph45%29.92 "HgN/A
2:25 pm81 °FPartly sunny.7 mph48%29.92 "HgN/A
1:55 pm81 °FOvercast.7 mph48%29.92 "HgN/A
1:25 pm79 °FOvercast.6 mph48%29.95 "HgN/A
12:55 pm79 °FScattered clouds.7 mph48%29.95 "HgN/A
12:25 pm79 °FHigh level clouds.7 mph45%29.95 "HgN/A
11:55 am77 °FPartly sunny.6 mph47%29.95 "HgN/A
11:25 am77 °FWarm.7 mph47%29.95 "HgN/A
10:55 am75 °FPassing clouds.7 mph50%29.98 "HgN/A
10:25 am73 °FPartly sunny.8 mph50%29.98 "HgN/A
9:55 am73 °FPartly sunny.8 mph47%29.98 "HgN/A
9:25 am72 °FHigh level clouds.7 mph53%29.98 "HgN/A
8:55 am70 °FPassing clouds.7 mph53%30.01 "HgN/A
8:25 am68 °FMild.6 mph64%30.01 "HgN/A
7:55 am66 °FPartly sunny.3 mph64%30.01 "HgN/A
7:25 am63 °FMild.3 mph68%30.01 "HgN/A
Weather by CustomWeather, © 2021

See weather overview